Time;durP1;ratioP1;P1;durP2;ratioP2;P2;SDS_P1;SDS_P2;PMS_P1;PMS_P2;Temp;Humidity;BMP_temperature;BMP_pressure;BME280_temperature;BME280_humidity;BME280_pressure;Samples;Min_cycle;Max_cycle;Signal;HPM_P1;HPM_P2
2023/02/08 00:00:19;;;;;;;13.60;6.47;;;;;;;;;;5092230;28;20018;-75
2023/02/08 00:02:44;;;;;;;19.70;7.30;;;;;;;;;;5092462;28;20536;-75
2023/02/08 00:05:09;;;;;;;21.70;7.13;;;;;;;;;;5091337;28;20387;-75
2023/02/08 00:07:35;;;;;;;15.03;6.10;;;;;;;;;;5084839;28;20066;-75
2023/02/08 00:10:01;;;;;;;17.33;6.73;;;;;;;;;;5087855;28;20024;-75
2023/02/08 00:12:27;;;;;;;24.20;7.50;;;;;;;;;;5091895;28;20077;-75
2023/02/08 00:14:52;;;;;;;16.60;6.63;;;;;;;;;;5092093;28;20432;-75
2023/02/08 00:17:19;;;;;;;14.20;6.63;;;;;;;;;;5092095;28;20023;-75
2023/02/08 00:19:45;;;;;;;17.30;7.27;;;;;;;;;;5083458;28;20024;-75
2023/02/08 00:22:10;;;;;;;16.37;6.37;;;;;;;;;;5085105;28;20074;-75
2023/02/08 00:24:35;;;;;;;20.57;6.93;;;;;;;;;;5090152;28;20463;-75
2023/02/08 00:27:00;;;;;;;17.27;6.27;;;;;;;;;;5090894;28;20016;-75
2023/02/08 00:29:25;;;;;;;19.83;6.87;;;;;;;;;;5091587;28;20019;-75
2023/02/08 00:31:51;;;;;;;19.30;6.70;;;;;;;;;;5084065;28;20108;-75
2023/02/08 00:34:16;;;;;;;22.00;6.83;;;;;;;;;;5088185;28;20031;-75
2023/02/08 00:36:41;;;;;;;14.50;6.43;;;;;;;;;;5091908;28;20031;-75
2023/02/08 00:39:06;;;;;;;20.47;7.30;;;;;;;;;;5090099;28;20017;-75
2023/02/08 00:41:34;;;;;;;18.43;6.27;;;;;;;;;;5090144;28;20012;-75
2023/02/08 00:43:59;;;;;;;17.37;6.57;;;;;;;;;;5084184;28;20364;-75
2023/02/08 00:46:25;;;;;;;15.93;6.63;;;;;;;;;;5067598;28;20028;-76
2023/02/08 00:48:50;;;;;;;18.87;7.00;;;;;;;;;;5091288;28;20052;-76
2023/02/08 00:51:15;;;;;;;16.80;5.83;;;;;;;;;;5089809;28;20024;-75
2023/02/08 00:53:43;;;;;;;15.20;6.63;;;;;;;;;;5091362;28;20027;-75
2023/02/08 00:56:09;;;;;;;21.97;7.60;;;;;;;;;;5083191;28;20029;-75
2023/02/08 00:58:34;;;;;;;13.63;5.80;;;;;;;;;;5082695;28;20412;-75
2023/02/08 01:01:00;;;;;;;17.00;6.30;;;;;;;;;;5091494;28;20023;-75
2023/02/08 01:03:26;;;;;;;12.17;4.97;;;;;;;;;;5091235;28;20446;-75
2023/02/08 01:05:51;;;;;;;14.73;5.93;;;;;;;;;;5090152;28;20028;-75
2023/02/08 01:08:18;;;;;;;19.07;6.60;;;;;;;;;;5083901;28;20086;-75
2023/02/08 01:10:43;;;;;;;15.07;6.00;;;;;;;;;;5091224;28;20492;-75
2023/02/08 01:13:08;;;;;;;17.27;6.77;;;;;;;;;;5091102;28;20066;-75
2023/02/08 01:15:34;;;;;;;12.90;5.57;;;;;;;;;;5090888;28;20095;-75
2023/02/08 01:17:59;;;;;;;15.20;5.70;;;;;;;;;;5091312;28;20012;-75
2023/02/08 01:20:24;;;;;;;11.73;5.00;;;;;;;;;;5083148;28;20020;-75
2023/02/08 01:22:50;;;;;;;15.77;5.40;;;;;;;;;;5089408;28;20031;-75
2023/02/08 01:25:15;;;;;;;16.97;5.43;;;;;;;;;;5090917;28;20024;-75
2023/02/08 01:27:40;;;;;;;15.03;5.87;;;;;;;;;;5081739;28;20028;-75
2023/02/08 01:30:06;;;;;;;16.97;6.27;;;;;;;;;;5089645;28;20085;-75
2023/02/08 01:32:31;;;;;;;14.13;5.33;;;;;;;;;;5086449;28;20016;-75
2023/02/08 01:34:56;;;;;;;14.70;5.70;;;;;;;;;;5091005;28;20527;-75
2023/02/08 01:37:21;;;;;;;14.33;5.07;;;;;;;;;;5090103;28;20020;-75
2023/02/08 01:39:46;;;;;;;12.33;5.37;;;;;;;;;;5094745;28;20069;-75
2023/02/08 01:42:12;;;;;;;13.40;5.30;;;;;;;;;;5094599;28;20459;-75
2023/02/08 01:44:56;;;;;;;14.50;5.87;;;;;;;;;;5083476;28;20079;-75
2023/02/08 01:47:21;;;;;;;16.80;5.97;;;;;;;;;;5082913;28;20032;-75
2023/02/08 01:49:46;;;;;;;14.00;5.80;;;;;;;;;;5092678;28;20730;-75
2023/02/08 01:52:18;;;;;;;13.00;5.77;;;;;;;;;;5093041;28;20142;-75
2023/02/08 01:54:56;;;;;;;15.87;7.03;;;;;;;;;;5094200;28;20012;-75
2023/02/08 01:57:22;;;;;;;17.43;6.73;;;;;;;;;;5079918;28;20269;-75
2023/02/08 01:59:50;;;;;;;21.10;7.33;;;;;;;;;;5091741;28;20477;-75
2023/02/08 02:02:16;;;;;;;23.90;8.10;;;;;;;;;;5083691;28;20024;-75
2023/02/08 02:04:41;;;;;;;17.97;6.03;;;;;;;;;;5094231;28;20020;-75
2023/02/08 02:07:07;;;;;;;14.90;6.33;;;;;;;;;;5083395;28;20479;-75
2023/02/08 02:09:48;;;;;;;19.10;6.83;;;;;;;;;;5093512;28;20012;-76
2023/02/08 02:12:14;;;;;;;16.80;6.32;;;;;;;;;;5092443;28;20450;-76
2023/02/08 02:14:39;;;;;;;15.43;6.33;;;;;;;;;;5093925;28;20104;-76
2023/02/08 02:17:04;;;;;;;18.73;6.70;;;;;;;;;;5094161;28;20491;-76
2023/02/08 02:19:30;;;;;;;13.80;6.47;;;;;;;;;;5081309;28;20025;-76
2023/02/08 02:22:13;;;;;;;16.13;6.33;;;;;;;;;;5078285;28;20486;-76
2023/02/08 02:24:59;;;;;;;18.30;6.77;;;;;;;;;;5092155;28;20028;-76
2023/02/08 02:27:24;;;;;;;13.57;6.07;;;;;;;;;;5093765;28;20035;-76
2023/02/08 02:29:49;;;;;;;23.00;6.40;;;;;;;;;;5093782;28;20024;-76
2023/02/08 02:32:37;;;;;;;16.10;6.00;;;;;;;;;;5079671;28;20039;-76
2023/02/08 02:35:18;;;;;;;21.73;7.07;;;;;;;;;;5093909;28;20046;-76
2023/02/08 02:37:50;;;;;;;14.77;5.55;;;;;;;;;;5093974;28;20021;-76
2023/02/08 02:40:20;;;;;;;20.88;6.32;;;;;;;;;;5093634;28;20016;-76
2023/02/08 02:45:41;;;;;;;16.50;6.30;;;;;;;;;;5061737;28;20102;-76
2023/02/08 02:48:08;;;;;;;13.60;6.10;;;;;;;;;;5082197;28;20035;-76
2023/02/08 02:51:03;;;;;;;18.10;7.23;;;;;;;;;;5092825;28;20032;-76
2023/02/08 02:53:32;;;;;;;16.00;6.00;;;;;;;;;;5084403;28;20051;-76
2023/02/08 02:56:00;;;;;;;16.00;6.33;;;;;;;;;;5083126;28;20040;-76
2023/02/08 02:58:26;;;;;;;18.97;6.17;;;;;;;;;;5093333;28;20031;-76
2023/02/08 03:00:55;;;;;;;13.67;5.90;;;;;;;;;;5092881;28;20099;-76
2023/02/08 03:03:29;;;;;;;24.20;6.97;;;;;;;;;;5093378;28;20418;-76
2023/02/08 03:05:57;;;;;;;17.50;5.03;;;;;;;;;;5093180;28;20016;-76
2023/02/08 03:08:33;;;;;;;17.03;5.93;;;;;;;;;;5085218;28;20031;-76
2023/02/08 03:11:01;;;;;;;16.20;6.23;;;;;;;;;;5093119;28;20016;-76
2023/02/08 03:13:44;;;;;;;13.80;6.37;;;;;;;;;;5093010;28;20122;-76
2023/02/08 03:16:25;;;;;;;16.03;5.70;;;;;;;;;;5091710;28;20069;-76
2023/02/08 03:18:53;;;;;;;10.97;5.10;;;;;;;;;;5088083;28;20085;-76
2023/02/08 03:21:23;;;;;;;12.90;4.97;;;;;;;;;;5087191;28;20027;-75
2023/02/08 03:23:57;;;;;;;15.13;6.13;;;;;;;;;;5092732;28;20020;-75
2023/02/08 03:26:38;;;;;;;13.40;5.70;;;;;;;;;;5091473;28;20027;-75
2023/02/08 03:29:08;;;;;;;16.93;5.67;;;;;;;;;;5092610;28;20032;-75
2023/02/08 03:31:36;;;;;;;20.97;6.00;;;;;;;;;;5081209;28;20111;-75
2023/02/08 03:34:06;;;;;;;19.70;6.33;;;;;;;;;;5092736;28;20054;-75
2023/02/08 03:36:35;;;;;;;23.03;6.03;;;;;;;;;;5092617;28;20468;-75
2023/02/08 03:39:03;;;;;;;15.27;5.50;;;;;;;;;;5092262;28;20023;-75
2023/02/08 03:41:31;;;;;;;15.93;6.43;;;;;;;;;;5092491;28;20050;-75
2023/02/08 03:43:59;;;;;;;14.73;5.93;;;;;;;;;;5080936;28;20024;-75
2023/02/08 03:46:27;;;;;;;13.73;4.80;;;;;;;;;;5082748;28;20407;-75
2023/02/08 03:49:16;;;;;;;12.70;5.10;;;;;;;;;;5090586;28;20787;-75
2023/02/08 03:51:42;;;;;;;14.33;5.30;;;;;;;;;;5082128;28;20040;-75
2023/02/08 03:54:11;;;;;;;14.83;6.23;;;;;;;;;;5088468;28;20649;-75
2023/02/08 03:56:41;;;;;;;22.33;6.07;;;;;;;;;;5072765;28;20028;-75
2023/02/08 03:59:11;;;;;;;17.03;6.13;;;;;;;;;;5091665;28;20051;-75
2023/02/08 04:01:56;;;;;;;13.10;4.73;;;;;;;;;;5091412;28;20103;-75
2023/02/08 04:04:25;;;;;;;13.53;4.67;;;;;;;;;;5092085;28;20024;-75
2023/02/08 04:06:52;;;;;;;13.10;5.40;;;;;;;;;;5085202;28;20032;-75
2023/02/08 04:09:17;;;;;;;24.67;6.73;;;;;;;;;;5090278;28;20031;-75
2023/02/08 04:11:43;;;;;;;16.97;6.03;;;;;;;;;;5091964;28;20040;-75
2023/02/08 04:14:08;;;;;;;8.80;4.30;;;;;;;;;;5090144;28;20026;-75
2023/02/08 04:16:35;;;;;;;10.13;4.90;;;;;;;;;;5092141;28;20047;-75
2023/02/08 04:19:00;;;;;;;14.17;4.37;;;;;;;;;;5076132;28;20498;-75
2023/02/08 04:21:28;;;;;;;13.87;5.30;;;;;;;;;;5086947;28;20095;-75
2023/02/08 04:23:56;;;;;;;14.50;5.53;;;;;;;;;;5090539;28;20020;-75
2023/02/08 04:26:21;;;;;;;14.97;5.67;;;;;;;;;;5091820;28;20024;-75
2023/02/08 04:28:46;;;;;;;13.77;5.50;;;;;;;;;;5083014;28;20035;-75
2023/02/08 04:31:11;;;;;;;13.50;5.40;;;;;;;;;;5090259;28;20034;-75
2023/02/08 04:33:37;;;;;;;15.00;4.67;;;;;;;;;;5089962;28;20073;-75
2023/02/08 04:36:02;;;;;;;10.60;4.80;;;;;;;;;;5089959;28;20143;-75
2023/02/08 04:38:27;;;;;;;12.60;5.00;;;;;;;;;;5090077;28;20024;-75
2023/02/08 04:40:52;;;;;;;13.80;5.47;;;;;;;;;;5082303;28;20089;-75
2023/02/08 04:43:18;;;;;;;13.60;4.97;;;;;;;;;;5090380;28;20447;-75
2023/02/08 04:45:43;;;;;;;11.77;5.00;;;;;;;;;;5075493;28;20032;-75
2023/02/08 04:48:08;;;;;;;12.60;5.37;;;;;;;;;;5091440;28;20447;-75
2023/02/08 04:50:34;;;;;;;18.40;5.63;;;;;;;;;;5090902;28;20028;-75
2023/02/08 04:52:59;;;;;;;14.37;4.83;;;;;;;;;;5085345;28;20459;-75
2023/02/08 04:55:24;;;;;;;13.33;5.13;;;;;;;;;;5090871;28;20503;-75
2023/02/08 04:57:49;;;;;;;11.63;5.17;;;;;;;;;;5091395;28;20026;-75
2023/02/08 05:00:15;;;;;;;12.97;5.13;;;;;;;;;;5091194;28;20386;-75
2023/02/08 05:02:40;;;;;;;16.37;4.80;;;;;;;;;;5090904;28;20034;-75
2023/02/08 05:05:05;;;;;;;11.27;4.90;;;;;;;;;;5083158;28;20058;-75
2023/02/08 05:07:30;;;;;;;8.53;3.73;;;;;;;;;;5090001;28;20024;-75
2023/02/08 05:09:55;;;;;;;12.73;4.13;;;;;;;;;;5091362;28;20027;-75
2023/02/08 05:12:21;;;;;;;14.37;4.90;;;;;;;;;;5090160;28;20028;-75
2023/02/08 05:14:46;;;;;;;15.53;4.13;;;;;;;;;;5094621;28;20043;-75
2023/02/08 05:17:11;;;;;;;11.53;4.70;;;;;;;;;;5087349;28;20016;-75
2023/02/08 05:19:36;;;;;;;9.80;4.37;;;;;;;;;;5093730;28;20152;-75
2023/02/08 05:22:01;;;;;;;8.03;3.97;;;;;;;;;;5093644;28;20479;-75
2023/02/08 05:24:27;;;;;;;16.47;5.27;;;;;;;;;;5095120;28;20020;-75
2023/02/08 05:26:52;;;;;;;11.17;5.13;;;;;;;;;;5094967;28;20115;-75
2023/02/08 05:29:17;;;;;;;13.33;4.83;;;;;;;;;;5087431;28;20024;-75
2023/02/08 05:31:42;;;;;;;13.33;4.77;;;;;;;;;;5094549;28;20024;-75
2023/02/08 05:34:07;;;;;;;13.03;4.63;;;;;;;;;;5093690;28;20016;-75
2023/02/08 05:36:33;;;;;;;9.40;4.00;;;;;;;;;;5094930;28;20428;-75
2023/02/08 05:38:58;;;;;;;10.57;4.17;;;;;;;;;;5093232;28;20027;-75
2023/02/08 05:41:23;;;;;;;13.37;5.03;;;;;;;;;;5085815;28;20423;-75
2023/02/08 05:43:48;;;;;;;10.93;4.53;;;;;;;;;;5094572;28;20027;-75
2023/02/08 05:46:13;;;;;;;9.63;3.73;;;;;;;;;;5079019;28;20409;-75
2023/02/08 05:48:39;;;;;;;13.57;5.43;;;;;;;;;;5094700;28;20069;-75
2023/02/08 05:51:04;;;;;;;12.40;4.90;;;;;;;;;;5094455;28;20016;-75
2023/02/08 05:53:29;;;;;;;14.10;4.97;;;;;;;;;;5086399;28;20028;-75
2023/02/08 05:55:55;;;;;;;9.23;4.50;;;;;;;;;;5094261;28;20462;-75
2023/02/08 05:58:21;;;;;;;14.50;5.07;;;;;;;;;;5093060;28;20016;-75
2023/02/08 06:00:46;;;;;;;13.07;5.07;;;;;;;;;;5093979;28;20019;-75
2023/02/08 06:03:11;;;;;;;12.57;5.37;;;;;;;;;;5091190;28;20654;-76
2023/02/08 06:05:38;;;;;;;14.17;5.03;;;;;;;;;;5079095;28;20118;-75
2023/02/08 06:08:03;;;;;;;15.43;4.93;;;;;;;;;;5079889;28;20466;-75
2023/02/08 06:10:28;;;;;;;15.20;6.00;;;;;;;;;;5094265;28;20086;-75
2023/02/08 06:12:54;;;;;;;19.33;6.03;;;;;;;;;;5094006;28;20023;-75
2023/02/08 06:15:19;;;;;;;12.63;4.67;;;;;;;;;;5087851;28;20066;-75
2023/02/08 06:17:44;;;;;;;12.90;4.70;;;;;;;;;;5086628;28;20222;-75
2023/02/08 06:20:09;;;;;;;13.03;4.53;;;;;;;;;;5092591;28;20024;-75
2023/02/08 06:22:35;;;;;;;13.13;6.03;;;;;;;;;;5092421;28;20020;-75
2023/02/08 06:25:01;;;;;;;20.10;6.43;;;;;;;;;;5093024;28;20048;-75
2023/02/08 06:27:27;;;;;;;14.13;6.33;;;;;;;;;;5083534;28;20028;-75
2023/02/08 06:29:52;;;;;;;12.30;5.57;;;;;;;;;;5088049;28;20455;-75
2023/02/08 06:32:17;;;;;;;19.13;7.23;;;;;;;;;;5093794;28;20016;-76
2023/02/08 06:34:43;;;;;;;17.50;5.90;;;;;;;;;;5093580;28;20028;-75
2023/02/08 06:37:08;;;;;;;17.47;6.90;;;;;;;;;;5093435;28;20360;-75
2023/02/08 06:39:33;;;;;;;15.17;5.97;;;;;;;;;;5083956;28;20016;-75
2023/02/08 06:41:59;;;;;;;17.50;6.57;;;;;;;;;;5074295;28;20472;-75
2023/02/08 06:44:24;;;;;;;16.60;6.20;;;;;;;;;;5089808;28;20142;-75
2023/02/08 06:46:49;;;;;;;12.93;5.30;;;;;;;;;;5081530;28;20028;-75
2023/02/08 06:49:14;;;;;;;13.53;6.07;;;;;;;;;;5093469;28;20427;-75
2023/02/08 06:51:39;;;;;;;21.10;5.50;;;;;;;;;;5085033;28;20026;-75
2023/02/08 06:54:05;;;;;;;16.50;6.17;;;;;;;;;;5090558;28;20367;-75
2023/02/08 06:56:30;;;;;;;21.90;5.60;;;;;;;;;;5093512;28;20080;-75
2023/02/08 06:58:55;;;;;;;13.23;5.33;;;;;;;;;;5093345;28;20040;-75
2023/02/08 07:01:21;;;;;;;15.90;5.43;;;;;;;;;;5093634;28;20440;-75
2023/02/08 07:03:46;;;;;;;17.10;6.90;;;;;;;;;;5082982;28;20056;-75
2023/02/08 07:06:15;;;;;;;12.50;4.70;;;;;;;;;;5085453;28;20099;-75
2023/02/08 07:08:41;;;;;;;9.27;4.17;;;;;;;;;;5093030;28;20486;-75
2023/02/08 07:11:10;;;;;;;12.87;5.20;;;;;;;;;;5093288;28;20008;-75
2023/02/08 07:13:35;;;;;;;14.00;4.60;;;;;;;;;;5091576;28;20043;-75
2023/02/08 07:16:01;;;;;;;11.80;4.93;;;;;;;;;;5084130;28;20063;-75
2023/02/08 07:18:26;;;;;;;12.47;4.77;;;;;;;;;;5091022;28;20012;-74
2023/02/08 07:20:52;;;;;;;11.00;4.77;;;;;;;;;;5081762;28;20012;-76
2023/02/08 07:23:17;;;;;;;9.93;4.90;;;;;;;;;;5078954;28;20016;-75
2023/02/08 07:25:42;;;;;;;11.23;4.37;;;;;;;;;;5083311;28;20502;-76
2023/02/08 07:28:07;;;;;;;13.53;5.03;;;;;;;;;;5086413;28;20016;-75
2023/02/08 07:30:32;;;;;;;15.47;5.20;;;;;;;;;;5077930;28;20024;-76
2023/02/08 07:32:58;;;;;;;13.90;5.37;;;;;;;;;;5083699;28;20065;-75
2023/02/08 07:35:23;;;;;;;10.40;5.20;;;;;;;;;;5089876;28;20020;-75
2023/02/08 07:37:48;;;;;;;13.73;5.03;;;;;;;;;;5078479;28;20332;-76
2023/02/08 07:40:13;;;;;;;12.30;4.50;;;;;;;;;;5074160;28;20020;-76
2023/02/08 07:42:38;;;;;;;13.13;5.30;;;;;;;;;;5086829;28;21941;-76
2023/02/08 07:45:04;;;;;;;14.70;5.37;;;;;;;;;;5076463;28;20017;-75
2023/02/08 07:47:29;;;;;;;15.67;6.10;;;;;;;;;;5088924;28;20031;-75
2023/02/08 07:49:54;;;;;;;13.13;5.37;;;;;;;;;;5092223;28;20463;-75
2023/02/08 07:52:19;;;;;;;15.27;6.23;;;;;;;;;;5071376;28;20028;-75
2023/02/08 07:54:47;;;;;;;17.23;5.77;;;;;;;;;;5074919;28;20039;-75
2023/02/08 07:57:19;;;;;;;19.43;6.63;;;;;;;;;;5070738;28;20020;-75
2023/02/08 07:59:45;;;;;;;;;;;;;;;;;;5065898;28;20028;-75
2023/02/08 08:02:12;;;;;;;17.25;6.38;;;;;;;;;;5079745;28;19915;-75
2023/02/08 08:04:37;;;;;;;22.97;5.87;;;;;;;;;;5075716;28;20038;-75
2023/02/08 08:07:03;;;;;;;16.37;6.07;;;;;;;;;;5074723;28;20016;-75
2023/02/08 08:09:28;;;;;;;17.10;6.60;;;;;;;;;;5088949;28;20402;-75
2023/02/08 08:11:53;;;;;;;24.87;7.67;;;;;;;;;;5080063;28;20028;-75
2023/02/08 08:14:18;;;;;;;20.97;7.33;;;;;;;;;;5090107;28;20024;-77
2023/02/08 08:16:44;;;;;;;28.37;7.27;;;;;;;;;;5068482;28;20096;-76
2023/02/08 08:19:09;;;;;;;23.03;8.00;;;;;;;;;;5081579;28;20019;-76
2023/02/08 08:21:35;;;;;;;27.00;7.60;;;;;;;;;;5075664;28;20380;-77
2023/02/08 08:24:00;;;;;;;17.67;6.37;;;;;;;;;;5081278;28;20379;-83
2023/02/08 08:26:25;;;;;;;17.63;6.10;;;;;;;;;;5079244;28;20249;-80
2023/02/08 08:28:50;;;;;;;17.57;5.73;;;;;;;;;;5076194;28;20028;-79
2023/02/08 08:31:17;;;;;;;14.10;5.67;;;;;;;;;;5071468;28;20040;-78
2023/02/08 08:33:42;;;;;;;12.93;5.57;;;;;;;;;;5071635;28;20016;-78
2023/02/08 08:36:08;;;;;;;16.30;5.40;;;;;;;;;;5066433;28;20086;-78
2023/02/08 08:38:33;;;;;;;16.97;6.00;;;;;;;;;;5065306;28;20021;-78
2023/02/08 08:40:59;;;;;;;18.53;5.47;;;;;;;;;;5070484;28;20115;-77
2023/02/08 08:43:24;;;;;;;14.90;5.93;;;;;;;;;;5069486;28;20024;-77
2023/02/08 08:45:49;;;;;;;15.13;5.40;;;;;;;;;;5072145;28;20048;-78
2023/02/08 08:48:14;;;;;;;12.57;5.50;;;;;;;;;;5071603;28;20476;-78
2023/02/08 08:50:41;;;;;;;11.20;5.23;;;;;;;;;;5076521;28;20039;-78
2023/02/08 08:53:07;;;;;;;15.67;5.70;;;;;;;;;;5082432;28;20499;-77
2023/02/08 08:55:32;;;;;;;13.70;5.60;;;;;;;;;;5085498;28;20024;-78
2023/02/08 08:57:57;;;;;;;14.83;4.97;;;;;;;;;;5090216;28;20103;-77
2023/02/08 09:00:22;;;;;;;14.63;5.87;;;;;;;;;;5072075;28;20031;-78
2023/02/08 09:02:47;;;;;;;11.23;5.10;;;;;;;;;;5083243;28;20486;-78
2023/02/08 09:05:13;;;;;;;14.13;4.67;;;;;;;;;;5087373;28;20047;-77
2023/02/08 09:07:38;;;;;;;12.03;4.80;;;;;;;;;;5091426;28;20432;-78
2023/02/08 09:10:03;;;;;;;13.90;5.67;;;;;;;;;;5079077;28;20020;-78
2023/02/08 09:12:29;;;;;;;10.20;4.43;;;;;;;;;;5076650;28;20020;-78
2023/02/08 09:14:54;;;;;;;11.03;5.10;;;;;;;;;;5080802;28;20012;-78
2023/02/08 09:17:19;;;;;;;11.30;4.97;;;;;;;;;;5080678;28;20039;-78
2023/02/08 09:19:46;;;;;;;13.10;4.83;;;;;;;;;;5091050;28;20459;-78
2023/02/08 09:22:11;;;;;;;21.77;5.33;;;;;;;;;;5082964;28;20055;-77
2023/02/08 09:24:36;;;;;;;14.10;5.77;;;;;;;;;;5085153;28;20044;-78
2023/02/08 09:27:09;;;;;;;11.67;4.87;;;;;;;;;;5077540;28;20020;-78
2023/02/08 09:29:34;;;;;;;9.87;4.83;;;;;;;;;;5077823;28;20333;-78
2023/02/08 09:32:00;;;;;;;17.77;5.20;;;;;;;;;;5087067;28;20024;-78
2023/02/08 09:34:25;;;;;;;16.67;4.63;;;;;;;;;;5076552;28;20021;-78
2023/02/08 09:36:50;;;;;;;11.57;5.43;;;;;;;;;;5070564;28;20444;-78
2023/02/08 09:39:17;;;;;;;14.87;4.97;;;;;;;;;;5068875;28;20051;-78
2023/02/08 09:41:45;;;;;;;13.20;5.00;;;;;;;;;;5070359;28;20028;-78
2023/02/08 09:44:25;;;;;;;11.27;4.73;;;;;;;;;;5069578;28;20379;-78
2023/02/08 09:47:02;;;;;;;10.50;4.23;;;;;;;;;;5067713;28;20530;-77
2023/02/08 09:49:31;;;;;;;10.80;4.77;;;;;;;;;;5067391;28;20024;-77
2023/02/08 09:51:59;;;;;;;11.10;4.73;;;;;;;;;;5070020;28;20024;-77
2023/02/08 09:54:24;;;;;;;11.33;4.80;;;;;;;;;;5070821;28;20013;-77
2023/02/08 09:56:50;;;;;;;14.30;4.93;;;;;;;;;;5070267;28;20095;-77
2023/02/08 09:59:21;;;;;;;10.80;4.47;;;;;;;;;;5070691;28;20099;-77
2023/02/08 10:01:47;;;;;;;11.17;4.63;;;;;;;;;;5073131;28;20029;-77
2023/02/08 10:04:18;;;;;;;15.03;4.57;;;;;;;;;;5071815;28;20021;-77
2023/02/08 10:06:44;;;;;;;8.17;3.93;;;;;;;;;;5072942;28;20020;-77
2023/02/08 10:09:13;;;;;;;11.50;5.10;;;;;;;;;;5072624;28;20080;-77
2023/02/08 10:11:46;;;;;;;7.87;3.67;;;;;;;;;;5062080;28;20024;-77
2023/02/08 10:14:31;;;;;;;9.23;4.23;;;;;;;;;;5072154;28;20021;-77
2023/02/08 10:17:00;;;;;;;6.87;3.43;;;;;;;;;;5092706;28;20047;-77
2023/02/08 10:19:41;;;;;;;9.20;3.27;;;;;;;;;;5094101;28;20081;-77
2023/02/08 10:22:26;;;;;;;7.30;3.23;;;;;;;;;;5092820;28;20039;-78
2023/02/08 10:24:57;;;;;;;7.40;2.70;;;;;;;;;;5093162;28;20046;-77
2023/02/08 10:27:24;;;;;;;7.03;2.57;;;;;;;;;;5084278;28;20027;-77
2023/02/08 10:29:55;;;;;;;8.97;3.50;;;;;;;;;;5092458;28;20024;-77
2023/02/08 10:32:21;;;;;;;6.57;2.60;;;;;;;;;;5085954;28;20059;-77
2023/02/08 10:34:49;;;;;;;7.07;2.43;;;;;;;;;;5085055;28;20374;-77
2023/02/08 10:37:18;;;;;;;8.13;2.63;;;;;;;;;;5092332;28;20028;-77
2023/02/08 10:39:43;;;;;;;9.03;2.83;;;;;;;;;;5087908;28;20020;-77
2023/02/08 10:42:14;;;;;;;9.30;2.40;;;;;;;;;;5092501;28;20054;-77
2023/02/08 10:44:55;;;;;;;7.43;2.83;;;;;;;;;;5089742;28;20116;-77
2023/02/08 10:47:32;;;;;;;9.47;3.00;;;;;;;;;;5091851;28;20020;-77
2023/02/08 10:50:00;;;;;;;6.93;3.03;;;;;;;;;;5088164;28;20036;-77
2023/02/08 10:52:25;;;;;;;4.73;2.27;;;;;;;;;;5090835;28;20020;-77
2023/02/08 10:54:51;;;;;;;7.70;2.70;;;;;;;;;;5093243;28;20386;-77
2023/02/08 10:57:20;;;;;;;8.30;3.53;;;;;;;;;;5091811;28;20024;-77
2023/02/08 10:59:48;;;;;;;6.63;2.70;;;;;;;;;;5093188;28;20035;-77
2023/02/08 11:02:21;;;;;;;5.23;2.50;;;;;;;;;;5090394;28;20028;-77
2023/02/08 11:05:16;;;;;;;6.30;2.83;;;;;;;;;;5093099;28;20020;-77
2023/02/08 11:07:41;;;;;;;5.20;2.20;;;;;;;;;;5084393;28;20039;-77
2023/02/08 11:10:19;;;;;;;6.77;2.67;;;;;;;;;;5092747;28;20024;-77
2023/02/08 11:13:02;;;;;;;6.33;2.20;;;;;;;;;;5092768;28;20042;-77
2023/02/08 11:15:46;;;;;;;7.40;2.30;;;;;;;;;;5086733;28;20012;-78
2023/02/08 11:18:44;;;;;;;8.20;2.60;;;;;;;;;;5091576;28;20016;-77
2023/02/08 11:21:21;;;;;;;3.60;1.80;;;;;;;;;;5057727;28;20077;-77
2023/02/08 11:23:50;;;;;;;4.40;1.50;;;;;;;;;;5090224;28;20047;-77
2023/02/08 11:26:32;;;;;;;5.70;2.00;;;;;;;;;;5083670;28;20028;-78
2023/02/08 11:29:24;;;;;;;4.78;1.80;;;;;;;;;;5092671;28;20095;-77
2023/02/08 11:32:22;;;;;;;4.90;1.50;;;;;;;;;;5090154;28;20024;-78
2023/02/08 11:34:47;;;;;;;4.93;1.80;;;;;;;;;;5068625;28;20026;-77
2023/02/08 11:37:12;;;;;;;4.77;1.90;;;;;;;;;;5088136;28;20403;-77
2023/02/08 11:39:48;;;;;;;2.53;1.40;;;;;;;;;;5090819;28;20016;-77
2023/02/08 11:42:19;;;;;;;3.40;1.37;;;;;;;;;;5068526;28;20107;-77
2023/02/08 11:44:44;;;;;;;3.30;1.50;;;;;;;;;;5081246;28;20423;-77
2023/02/08 11:47:13;;;;;;;9.20;1.50;;;;;;;;;;5088919;28;20017;-77
2023/02/08 11:49:43;;;;;;;2.60;1.33;;;;;;;;;;5067186;28;20542;-77
2023/02/08 11:52:29;;;;;;;3.60;1.77;;;;;;;;;;5076649;28;20021;-77
2023/02/08 11:55:10;;;;;;;4.55;1.80;;;;;;;;;;5083833;28;20016;-77
2023/02/08 11:57:49;;;;;;;2.77;1.20;;;;;;;;;;5075541;28;20565;-77
2023/02/08 12:00:17;;;;;;;5.33;1.80;;;;;;;;;;5069032;28;20012;-76
2023/02/08 12:02:42;;;;;;;3.70;1.57;;;;;;;;;;5069806;28;20032;-76
2023/02/08 12:05:12;;;;;;;2.77;1.13;;;;;;;;;;5070948;28;20024;-77
2023/02/08 12:07:44;;;;;;;2.25;1.38;;;;;;;;;;5070256;28;20036;-77
2023/02/08 12:10:17;;;;;;;3.67;1.50;;;;;;;;;;5062520;28;20021;-76
2023/02/08 12:12:46;;;;;;;2.50;1.30;;;;;;;;;;5052958;28;20154;-76
2023/02/08 12:15:17;;;;;;;2.80;1.35;;;;;;;;;;5053730;28;20009;-77
2023/02/08 12:17:45;;;;;;;3.38;1.25;;;;;;;;;;5056611;28;20024;-77
2023/02/08 12:20:14;;;;;;;2.85;1.42;;;;;;;;;;5082566;28;20043;-77
2023/02/08 12:22:43;;;;;;;2.55;1.08;;;;;;;;;;5082493;28;20054;-77
2023/02/08 12:25:14;;;;;;;2.10;1.02;;;;;;;;;;5073663;28;20532;-76
2023/02/08 12:27:42;;;;;;;5.18;1.98;;;;;;;;;;5081084;28;20650;-76
2023/02/08 12:30:26;;;;;;;4.95;1.45;;;;;;;;;;5074667;28;20123;-75
2023/02/08 12:32:58;;;;;;;3.67;1.52;;;;;;;;;;5066490;28;20056;-76
2023/02/08 12:35:39;;;;;;;3.42;1.30;;;;;;;;;;5066136;28;20029;-76
2023/02/08 12:41:07;;;;;;;;;;;;;;;;;;5077348;28;20019;-76
2023/02/08 12:44:01;;;;;;;2.55;0.90;;;;;;;;;;5079463;28;19928;-77
2023/02/08 12:46:26;;;;;;;1.38;0.63;;;;;;;;;;5060405;28;20417;-76
2023/02/08 12:49:10;;;;;;;2.63;1.20;;;;;;;;;;5081556;28;20420;-76
2023/02/08 12:51:35;;;;;;;2.75;1.10;;;;;;;;;;5074628;28;20550;-76
2023/02/08 12:54:08;;;;;;;2.05;0.95;;;;;;;;;;5075026;28;20111;-76
2023/02/08 12:56:38;;;;;;;2.27;0.93;;;;;;;;;;5075398;28;20021;-76
2023/02/08 12:59:05;;;;;;;4.00;1.43;;;;;;;;;;5084881;28;20655;-76
2023/02/08 13:01:30;;;;;;;3.87;1.30;;;;;;;;;;5070259;28;20017;-76
2023/02/08 13:04:04;;;;;;;3.50;1.37;;;;;;;;;;5087026;28;20019;-77
2023/02/08 13:06:35;;;;;;;1.87;0.93;;;;;;;;;;5067865;28;20546;-76
2023/02/08 13:09:07;;;;;;;2.83;1.00;;;;;;;;;;5072314;28;20100;-77
2023/02/08 13:11:35;;;;;;;4.38;1.50;;;;;;;;;;5070279;28;20482;-77
2023/02/08 13:14:02;;;;;;;4.22;1.13;;;;;;;;;;5085286;28;20028;-77
2023/02/08 13:16:33;;;;;;;1.70;0.93;;;;;;;;;;5068849;28;20017;-76
2023/02/08 13:19:17;;;;;;;3.33;1.17;;;;;;;;;;5091431;28;20012;-76
2023/02/08 13:21:42;;;;;;;5.17;1.00;;;;;;;;;;5068258;28;20031;-76
2023/02/08 13:24:28;;;;;;;2.80;1.15;;;;;;;;;;5078991;28;20460;-76
2023/02/08 13:26:53;;;;;;;2.73;1.00;;;;;;;;;;5068034;28;20028;-76
2023/02/08 13:29:19;;;;;;;2.97;1.23;;;;;;;;;;5074885;28;20025;-76
2023/02/08 13:31:57;;;;;;;2.22;0.90;;;;;;;;;;5066792;28;20021;-77
2023/02/08 13:34:43;;;;;;;2.15;0.90;;;;;;;;;;5075199;28;20021;-77
2023/02/08 13:37:19;;;;;;;2.67;1.17;;;;;;;;;;5073246;28;20340;-76
2023/02/08 13:39:45;;;;;;;2.17;1.10;;;;;;;;;;5078707;28;20087;-76
2023/02/08 13:42:32;;;;;;;4.35;1.13;;;;;;;;;;5074285;28;20424;-76
2023/02/08 13:44:58;;;;;;;1.50;1.02;;;;;;;;;;5085157;28;20029;-76
2023/02/08 13:47:28;;;;;;;7.13;1.20;;;;;;;;;;5069757;28;20069;-77
2023/02/08 13:49:53;;;;;;;3.20;1.02;;;;;;;;;;5069344;28;20111;-76
2023/02/08 13:52:37;;;;;;;2.75;1.10;;;;;;;;;;5080568;28;20116;-76
2023/02/08 13:55:20;;;;;;;2.92;0.90;;;;;;;;;;5065324;28;20104;-76
2023/02/08 13:57:49;;;;;;;1.85;1.00;;;;;;;;;;5070035;28;20105;-77
2023/02/08 14:00:22;;;;;;;2.38;1.17;;;;;;;;;;5073401;28;20042;-76
2023/02/08 14:02:57;;;;;;;2.55;1.20;;;;;;;;;;5077657;28;20099;-76
2023/02/08 14:05:41;;;;;;;1.15;0.70;;;;;;;;;;5080770;28;20071;-76
2023/02/08 14:08:15;;;;;;;1.77;1.10;;;;;;;;;;5067257;28;20099;-76
2023/02/08 14:10:42;;;;;;;2.75;1.20;;;;;;;;;;5080192;28;20103;-76
2023/02/08 14:13:22;;;;;;;3.67;1.05;;;;;;;;;;5081435;28;20032;-76
2023/02/08 14:16:07;;;;;;;4.10;1.40;;;;;;;;;;5081010;28;20055;-76
2023/02/08 14:18:32;;;;;;;3.38;1.27;;;;;;;;;;5091631;28;20320;-76
2023/02/08 14:21:03;;;;;;;4.32;1.20;;;;;;;;;;5085627;28;20047;-76
2023/02/08 14:23:29;;;;;;;1.95;1.05;;;;;;;;;;5071457;28;20044;-76
2023/02/08 14:25:57;;;;;;;3.15;1.27;;;;;;;;;;5076024;28;20052;-76
2023/02/08 14:28:27;;;;;;;5.32;1.52;;;;;;;;;;5089790;28;20016;-76
2023/02/08 14:30:54;;;;;;;2.67;1.20;;;;;;;;;;5093048;28;20367;-76
2023/02/08 14:33:21;;;;;;;2.22;1.10;;;;;;;;;;5090976;28;20425;-76
2023/02/08 14:35:55;;;;;;;2.67;1.40;;;;;;;;;;5089960;28;20147;-76
2023/02/08 14:38:23;;;;;;;2.38;0.93;;;;;;;;;;5087122;28;20091;-76
2023/02/08 14:40:49;;;;;;;2.40;1.00;;;;;;;;;;5093847;28;20061;-76
2023/02/08 14:43:17;;;;;;;1.52;0.98;;;;;;;;;;5075058;28;20439;-76
2023/02/08 14:45:43;;;;;;;2.65;0.90;;;;;;;;;;5081912;28;20058;-76
2023/02/08 14:48:08;;;;;;;2.42;0.82;;;;;;;;;;5079673;28;20056;-76
2023/02/08 14:50:39;;;;;;;2.08;0.77;;;;;;;;;;5076910;28;20027;-76